This is the latest recevied weather packets stored in our database for station/object DB2YI-13. If no packets are shown the sender has not sent any weather packets the latest 1 day(s).
| Time | Temp. | Humidity | Pressure | Rain* | Wind** | Luminosity | Snow |
|---|---|---|---|---|---|---|---|
| 1778085603 | 13.89° C | 83% | - | 0 mm | - | - | - |
| 1778085001 | 13.89° C | 83% | - | 0 mm | - | - | - |
| 1778083802 | 14.44° C | 83% | - | 0 mm | - | - | - |
| 1778082601 | 15° C | 85% | - | 0 mm | - | - | - |
| 1778079002 | 15° C | 86% | - | 0 mm | - | - | - |
| 1778078402 | 15° C | 85% | - | 0 mm | - | - | - |
| 1778076001 | 15.56° C | 76% | - | 0 mm | - | - | - |
| 1778075402 | 15.56° C | 75% | - | 0 mm | - | - | - |
| 1778073601 | 15.56° C | 76% | - | 0 mm | - | - | - |
| 1778073002 | 16.11° C | 74% | - | 0 mm | - | - | - |
| 1778071201 | 16.67° C | 71% | - | 0 mm | - | - | - |
| 1778069401 | 16.11° C | 76% | - | 0 mm | - | - | - |
| 1778068801 | 15.56° C | 78% | - | 0 mm | - | - | - |
| 1778067001 | 15° C | 77% | - | 0 mm | - | - | - |
| 1778066401 | 15° C | 77% | - | 0 mm | - | - | - |
| 1778065204 | 15° C | 76% | - | 0 mm | - | - | - |
| 1778062801 | 15° C | 79% | - | 0 mm | - | - | - |
| 1778062201 | 15° C | 80% | - | 0 mm | - | - | - |
| 1778061602 | 15° C | 80% | - | 0 mm | - | - | - |
| 1778059801 | 15.56° C | 80% | - | 0 mm | - | - | - |
| 1778059201 | 15° C | 83% | - | 0 mm | - | - | - |
| 1778058601 | 14.44° C | 83% | - | 0 mm | - | - | - |
| 1778058001 | 14.44° C | 83% | - | 0 mm | - | - | - |
| 1778057401 | 14.44° C | 84% | - | 0 mm | - | - | - |
| 1778056801 | 14.44° C | 84% | - | 0 mm | - | - | - |
* Rain latest hour (hover to see other rain measurements)
** Current wind speed in m/s (hover to see current wind gust speed)